createdAt,value
2022-12-19T00:00:43.995Z,36.00
2022-12-19T00:01:44.072Z,31.10
2022-12-19T00:02:44.257Z,31.20
2022-12-19T00:03:44.048Z,30.70
2022-12-19T00:04:43.940Z,37.90
2022-12-19T00:05:43.950Z,31.90
2022-12-19T00:06:44.300Z,32.00
2022-12-19T00:07:44.151Z,29.10
2022-12-19T00:08:43.901Z,30.20
2022-12-19T00:09:43.890Z,27.30
2022-12-19T00:10:43.878Z,29.60
2022-12-19T00:11:43.889Z,31.00
2022-12-19T00:12:44.059Z,34.50
2022-12-19T00:13:43.839Z,35.40
2022-12-19T00:14:43.830Z,29.90
2022-12-19T00:15:43.826Z,32.00
2022-12-19T00:16:43.902Z,29.60
2022-12-19T00:17:43.817Z,31.60
2022-12-19T00:18:43.781Z,33.40
2022-12-19T00:19:43.767Z,31.90
2022-12-19T00:20:43.745Z,31.80
2022-12-19T00:21:43.747Z,28.20
2022-12-19T00:22:43.907Z,35.30
2022-12-19T00:23:43.939Z,29.80
2022-12-19T00:24:43.735Z,30.40
2022-12-19T00:25:43.684Z,28.10
2022-12-19T00:26:43.678Z,29.80
2022-12-19T00:27:43.874Z,30.60
2022-12-19T00:28:43.863Z,31.70
2022-12-19T00:29:43.645Z,38.40
2022-12-19T00:30:43.634Z,30.70
2022-12-19T00:31:43.820Z,33.90
2022-12-19T00:32:43.592Z,33.30
2022-12-19T00:33:43.851Z,26.10
2022-12-19T00:34:43.775Z,35.50
2022-12-19T00:35:43.561Z,35.10
2022-12-19T00:36:43.556Z,34.70
2022-12-19T00:37:49.439Z,28.60
2022-12-19T00:38:44.522Z,34.90
2022-12-19T00:39:43.711Z,29.40
2022-12-19T00:40:43.500Z,31.90
2022-12-19T00:41:43.490Z,29.10
2022-12-19T00:42:44.821Z,33.10
2022-12-19T00:43:43.669Z,29.10
2022-12-19T00:44:43.650Z,29.20
2022-12-19T00:45:43.484Z,34.50
2022-12-19T00:46:45.165Z,30.80
2022-12-19T00:47:44.409Z,29.60
2022-12-19T00:48:43.400Z,33.60
2022-12-19T00:49:43.388Z,30.20
2022-12-19T00:50:43.367Z,30.70
2022-12-19T00:51:43.618Z,34.30
2022-12-19T00:52:43.346Z,29.40
2022-12-19T00:53:43.338Z,29.70
2022-12-19T00:54:43.380Z,37.60
2022-12-19T00:55:43.307Z,30.60
2022-12-19T00:56:43.506Z,38.00
2022-12-19T00:57:43.286Z,32.90
2022-12-19T00:58:46.875Z,33.20
2022-12-19T00:59:43.468Z,28.60
2022-12-19T01:00:43.322Z,32.10
2022-12-19T01:01:43.492Z,27.40
2022-12-19T01:02:43.413Z,30.00
2022-12-19T01:03:53.094Z,31.40
2022-12-19T01:04:44.206Z,30.90
2022-12-19T01:05:43.184Z,29.50
2022-12-19T01:06:43.172Z,38.30
2022-12-19T01:07:43.363Z,29.10
2022-12-19T01:08:43.152Z,37.50
2022-12-19T01:09:43.355Z,28.30
2022-12-19T01:10:43.134Z,31.50
2022-12-19T01:11:43.112Z,31.30
2022-12-19T01:12:43.103Z,35.00
2022-12-19T01:13:43.370Z,33.20
2022-12-19T01:14:43.383Z,35.70
2022-12-19T01:15:43.064Z,30.30
2022-12-19T01:16:43.113Z,28.80
2022-12-19T01:17:44.085Z,29.30
2022-12-19T01:18:43.031Z,32.70
2022-12-19T01:19:44.619Z,32.40
2022-12-19T01:20:43.020Z,36.60
2022-12-19T01:21:42.991Z,31.60
2022-12-19T01:22:42.998Z,25.40
2022-12-19T01:23:42.959Z,28.00
2022-12-19T01:24:42.949Z,31.00
2022-12-19T01:25:45.851Z,31.40
2022-12-19T01:26:42.928Z,28.80
2022-12-19T01:27:43.136Z,29.40
2022-12-19T01:28:42.908Z,28.90
2022-12-19T01:29:52.867Z,36.80
2022-12-19T01:30:43.904Z,27.20
2022-12-19T01:31:42.928Z,35.70
2022-12-19T01:32:43.059Z,34.00
2022-12-19T01:33:42.836Z,29.60
2022-12-19T01:34:42.839Z,28.80
2022-12-19T01:35:42.815Z,31.10
2022-12-19T01:36:42.986Z,28.60
2022-12-19T01:37:42.813Z,27.80
2022-12-19T01:38:42.785Z,25.60
2022-12-19T01:39:42.809Z,31.10
2022-12-19T01:40:42.966Z,28.30
2022-12-19T01:41:42.735Z,27.80
2022-12-19T01:42:42.741Z,27.00
2022-12-19T01:43:42.712Z,28.20
2022-12-19T01:44:42.704Z,31.00
2022-12-19T01:45:45.902Z,28.30
2022-12-19T01:46:42.968Z,36.30
2022-12-19T01:47:42.664Z,26.70
2022-12-19T01:48:42.653Z,32.20
2022-12-19T01:49:42.643Z,35.60
2022-12-19T01:50:47.384Z,31.80
2022-12-19T01:51:43.805Z,29.30
2022-12-19T01:52:42.611Z,31.70
2022-12-19T01:53:49.410Z,31.00
2022-12-19T01:54:43.580Z,37.20
2022-12-19T01:55:42.562Z,31.10
2022-12-19T01:56:42.738Z,31.80
2022-12-19T01:57:42.510Z,33.30
2022-12-19T01:58:42.705Z,30.00
2022-12-19T01:59:42.481Z,30.90
2022-12-19T02:00:42.515Z,30.60
2022-12-19T02:01:51.589Z,28.30
2022-12-19T02:02:43.758Z,35.30
2022-12-19T02:03:42.435Z,28.10
2022-12-19T02:04:42.439Z,30.90
2022-12-19T02:05:42.609Z,29.30
2022-12-19T02:06:42.397Z,29.00
2022-12-19T02:07:42.609Z,33.20
2022-12-19T02:08:42.382Z,32.00
2022-12-19T02:09:42.373Z,32.90
2022-12-19T02:10:42.568Z,32.70
2022-12-19T02:11:42.337Z,34.50
2022-12-19T02:12:42.527Z,34.40
2022-12-19T02:13:43.593Z,34.40
2022-12-19T02:14:42.488Z,33.10
2022-12-19T02:15:42.287Z,34.00
2022-12-19T02:16:42.328Z,34.90
2022-12-19T02:17:42.449Z,38.20
2022-12-19T02:18:42.277Z,31.70
2022-12-19T02:19:42.427Z,27.00
2022-12-19T02:20:42.239Z,35.80
2022-12-19T02:21:42.212Z,33.50
2022-12-19T02:22:42.218Z,36.20
2022-12-19T02:23:42.198Z,31.70
2022-12-19T02:24:42.394Z,31.70
2022-12-19T02:25:42.167Z,27.00
2022-12-19T02:26:42.171Z,30.00
2022-12-19T02:27:42.196Z,29.10
2022-12-19T02:28:42.140Z,30.40
2022-12-19T02:29:42.331Z,29.10
2022-12-19T02:30:42.134Z,30.90
2022-12-19T02:31:42.362Z,34.00
2022-12-19T02:32:42.110Z,32.70
2022-12-19T02:33:42.258Z,32.00
2022-12-19T02:34:44.567Z,33.30
2022-12-19T02:35:42.043Z,30.70
2022-12-19T02:36:45.456Z,32.30
2022-12-19T02:37:43.043Z,27.70
2022-12-19T02:38:42.026Z,33.60
2022-12-19T02:39:42.017Z,32.20
2022-12-19T02:40:42.003Z,30.30
2022-12-19T02:41:41.975Z,32.60
2022-12-19T02:42:42.019Z,37.10
2022-12-19T02:43:41.959Z,30.30
2022-12-19T02:44:41.957Z,31.80
2022-12-19T02:45:41.956Z,28.60
2022-12-19T02:46:41.924Z,33.50
2022-12-19T02:47:41.905Z,30.70
2022-12-19T02:48:42.132Z,23.40
2022-12-19T02:49:41.883Z,28.40
2022-12-19T02:50:41.875Z,29.10
2022-12-19T02:51:41.856Z,23.70
2022-12-19T02:52:41.892Z,29.00
2022-12-19T02:53:41.833Z,31.00
2022-12-19T02:54:44.947Z,31.90
2022-12-19T02:55:41.816Z,29.90
2022-12-19T02:56:41.819Z,28.70
2022-12-19T02:57:41.807Z,29.70
2022-12-19T02:58:41.780Z,31.30
2022-12-19T02:59:41.769Z,28.40
2022-12-19T03:00:41.782Z,27.70
2022-12-19T03:01:41.863Z,25.60
2022-12-19T03:02:42.343Z,28.40
2022-12-19T03:03:42.941Z,28.10
2022-12-19T03:04:41.715Z,26.70
2022-12-19T03:05:41.729Z,28.80
2022-12-19T03:06:41.689Z,29.90
2022-12-19T03:07:41.685Z,29.10
2022-12-19T03:08:41.669Z,25.50
2022-12-19T03:09:41.659Z,25.50
2022-12-19T03:10:41.685Z,27.70
2022-12-19T03:11:41.630Z,28.20
2022-12-19T03:12:41.623Z,27.40
2022-12-19T03:13:41.793Z,28.90
2022-12-19T03:14:41.580Z,25.80
2022-12-19T03:15:41.580Z,28.00
2022-12-19T03:16:41.607Z,22.80
2022-12-19T03:17:41.562Z,25.50
2022-12-19T03:18:41.736Z,24.70
2022-12-19T03:19:41.745Z,22.90
2022-12-19T03:20:41.508Z,21.50
2022-12-19T03:21:41.719Z,22.30
2022-12-19T03:22:41.481Z,29.20
2022-12-19T03:23:41.480Z,22.00
2022-12-19T03:24:41.466Z,22.40
2022-12-19T03:25:41.450Z,29.70
2022-12-19T03:26:41.680Z,28.00
2022-12-19T03:27:41.443Z,26.70
2022-12-19T03:28:41.421Z,24.90
2022-12-19T03:29:41.623Z,24.50
2022-12-19T03:30:41.451Z,24.60
2022-12-19T03:31:41.396Z,25.70
2022-12-19T03:32:41.363Z,24.00
2022-12-19T03:33:41.361Z,29.90
2022-12-19T03:34:41.549Z,22.80
2022-12-19T03:35:41.339Z,27.50
2022-12-19T03:36:41.551Z,23.40
2022-12-19T03:37:41.310Z,26.20
2022-12-19T03:38:41.294Z,26.70
2022-12-19T03:39:41.293Z,22.00
2022-12-19T03:40:41.274Z,26.40
2022-12-19T03:41:41.492Z,23.20
2022-12-19T03:42:41.242Z,26.80
2022-12-19T03:43:41.236Z,25.70
2022-12-19T03:44:41.220Z,30.20
2022-12-19T03:45:41.277Z,27.40
2022-12-19T03:46:41.190Z,27.10
2022-12-19T03:47:41.402Z,19.80
2022-12-19T03:48:41.174Z,30.00
2022-12-19T03:49:41.189Z,26.80
2022-12-19T03:50:41.361Z,26.30
2022-12-19T03:51:41.140Z,28.90
2022-12-19T03:52:41.131Z,24.00
2022-12-19T03:53:41.130Z,24.60
2022-12-19T03:54:41.091Z,26.00
2022-12-19T03:55:41.083Z,27.10
2022-12-19T03:56:41.070Z,28.80
2022-12-19T03:57:41.269Z,32.00
2022-12-19T03:58:41.039Z,26.90
2022-12-19T03:59:41.052Z,25.60
2022-12-19T04:00:41.019Z,28.70
2022-12-19T04:01:41.072Z,25.80
2022-12-19T04:02:41.206Z,27.40
2022-12-19T04:03:41.050Z,26.00
2022-12-19T04:04:40.981Z,25.60
2022-12-19T04:05:40.968Z,24.50
2022-12-19T04:06:40.947Z,25.90
2022-12-19T04:07:41.193Z,25.60
2022-12-19T04:08:40.917Z,26.20
2022-12-19T04:09:40.917Z,28.40
2022-12-19T04:10:40.900Z,21.30
2022-12-19T04:11:40.891Z,25.50
2022-12-19T04:12:41.101Z,25.00
2022-12-19T04:13:40.862Z,29.10
2022-12-19T04:14:40.850Z,28.80
2022-12-19T04:15:40.871Z,23.80
2022-12-19T04:16:40.829Z,29.10
2022-12-19T04:17:41.041Z,28.60
2022-12-19T04:18:40.796Z,28.60
2022-12-19T04:19:42.688Z,31.30
2022-12-19T04:20:40.779Z,24.60
2022-12-19T04:21:40.764Z,23.30
2022-12-19T04:22:40.956Z,26.40
2022-12-19T04:23:40.758Z,25.80
2022-12-19T04:24:40.715Z,28.80
2022-12-19T04:25:40.714Z,26.20
2022-12-19T04:26:40.715Z,21.20
2022-12-19T04:27:40.916Z,29.20
2022-12-19T04:28:40.674Z,28.50
2022-12-19T04:29:40.666Z,26.10
2022-12-19T04:30:40.644Z,23.30
2022-12-19T04:31:40.643Z,27.50
2022-12-19T04:32:40.915Z,24.50
2022-12-19T04:33:40.640Z,22.90
2022-12-19T04:34:43.020Z,23.30
2022-12-19T04:35:40.598Z,27.50
2022-12-19T04:36:40.590Z,22.40
2022-12-19T04:37:40.791Z,23.90
2022-12-19T04:38:40.555Z,23.20
2022-12-19T04:39:40.540Z,27.50
2022-12-19T04:40:41.767Z,27.90
2022-12-19T04:41:40.527Z,26.80
2022-12-19T04:42:40.505Z,25.90
2022-12-19T04:43:40.501Z,30.60
2022-12-19T04:44:40.477Z,27.20
2022-12-19T04:45:40.469Z,25.90
2022-12-19T04:46:40.716Z,26.10
2022-12-19T04:47:40.441Z,30.90
2022-12-19T04:48:40.418Z,28.80
2022-12-19T04:49:40.409Z,22.90
2022-12-19T04:50:40.397Z,27.90
2022-12-19T04:51:40.576Z,23.90
2022-12-19T04:52:40.367Z,27.00
2022-12-19T04:53:40.356Z,26.00
2022-12-19T04:54:40.348Z,25.90
2022-12-19T04:55:40.557Z,24.20
2022-12-19T04:56:40.322Z,24.70
2022-12-19T04:57:40.307Z,23.80
2022-12-19T04:58:40.496Z,30.50
2022-12-19T04:59:40.493Z,23.30
2022-12-19T05:00:40.272Z,25.00
2022-12-19T05:01:40.564Z,29.80
2022-12-19T05:02:40.396Z,24.10
2022-12-19T05:03:40.260Z,27.60
2022-12-19T05:04:40.214Z,25.10
2022-12-19T05:05:40.466Z,24.40
2022-12-19T05:06:40.194Z,25.20
2022-12-19T05:07:40.182Z,28.10
2022-12-19T05:08:40.405Z,21.80
2022-12-19T05:09:40.388Z,22.90
2022-12-19T05:10:40.167Z,25.50
2022-12-19T05:11:40.144Z,23.90
2022-12-19T05:12:40.128Z,23.90
2022-12-19T05:13:40.104Z,25.60
2022-12-19T05:14:40.313Z,23.40
2022-12-19T05:15:40.157Z,28.60
2022-12-19T05:16:40.096Z,22.60
2022-12-19T05:17:40.066Z,26.00
2022-12-19T05:18:40.050Z,25.90
2022-12-19T05:19:40.249Z,25.40
2022-12-19T05:20:40.015Z,26.10
2022-12-19T05:21:40.008Z,23.90
2022-12-19T05:22:39.987Z,28.30
2022-12-19T05:23:39.997Z,30.30
2022-12-19T05:24:40.186Z,24.70
2022-12-19T05:25:39.962Z,25.50
2022-12-19T05:26:39.937Z,26.70
2022-12-19T05:27:39.967Z,34.90
2022-12-19T05:28:39.928Z,24.40
2022-12-19T05:29:39.936Z,29.20
2022-12-19T05:30:39.896Z,22.80
2022-12-19T05:31:39.898Z,22.10
2022-12-19T05:32:39.854Z,23.20
2022-12-19T05:33:39.876Z,23.90
2022-12-19T05:34:39.848Z,26.20
2022-12-19T05:35:39.835Z,22.70
2022-12-19T05:36:39.844Z,23.90
2022-12-19T05:37:39.806Z,18.90
2022-12-19T05:38:39.780Z,24.10
2022-12-19T05:39:39.814Z,17.60
2022-12-19T05:40:39.965Z,28.10
2022-12-19T05:41:39.748Z,26.20
2022-12-19T05:42:39.953Z,25.70
2022-12-19T05:43:39.720Z,25.30
2022-12-19T05:44:39.724Z,23.80
2022-12-19T05:45:39.716Z,23.70
2022-12-19T05:46:39.948Z,26.20
2022-12-19T05:47:39.674Z,22.10
2022-12-19T05:48:39.659Z,27.00
2022-12-19T05:49:39.879Z,24.00
2022-12-19T05:50:39.638Z,26.00
2022-12-19T05:51:39.627Z,24.30
2022-12-19T05:52:39.607Z,23.00
2022-12-19T05:53:39.609Z,24.20
2022-12-19T05:54:39.808Z,21.20
2022-12-19T05:55:39.795Z,23.40
2022-12-19T05:56:39.550Z,18.50
2022-12-19T05:57:39.549Z,22.60
2022-12-19T05:58:39.549Z,23.70
2022-12-19T05:59:39.525Z,25.70
2022-12-19T06:00:39.755Z,20.00
2022-12-19T06:01:39.572Z,19.70
2022-12-19T06:02:39.665Z,23.70
2022-12-19T06:03:39.539Z,20.80
2022-12-19T06:04:39.451Z,23.30
2022-12-19T06:05:39.651Z,25.90
2022-12-19T06:06:39.453Z,18.10
2022-12-19T06:07:39.443Z,23.60
2022-12-19T06:08:39.642Z,23.50
2022-12-19T06:09:39.410Z,25.60
2022-12-19T06:10:39.611Z,18.40
2022-12-19T06:11:39.378Z,21.80
2022-12-19T06:12:39.361Z,21.90
2022-12-19T06:13:39.341Z,19.40
2022-12-19T06:14:39.328Z,23.80
2022-12-19T06:15:39.543Z,22.10
2022-12-19T06:16:39.325Z,23.60
2022-12-19T06:17:39.299Z,26.90
2022-12-19T06:18:44.135Z,22.40
2022-12-19T06:19:40.280Z,22.90
2022-12-19T06:20:39.450Z,24.40
2022-12-19T06:21:45.482Z,24.00
2022-12-19T06:22:40.427Z,22.20
2022-12-19T06:23:39.399Z,22.20
2022-12-19T06:24:39.200Z,19.90
2022-12-19T06:25:39.202Z,20.50
2022-12-19T06:26:39.384Z,19.20
2022-12-19T06:27:39.182Z,16.90
2022-12-19T06:28:39.175Z,20.30
2022-12-19T06:29:39.136Z,22.40
2022-12-19T06:30:39.115Z,18.40
2022-12-19T06:31:39.395Z,20.20
2022-12-19T06:32:39.099Z,20.30
2022-12-19T06:33:39.107Z,18.70
2022-12-19T06:35:03.125Z,22.90
2022-12-19T06:35:40.067Z,19.90
2022-12-19T06:36:39.076Z,23.10
2022-12-19T06:37:39.666Z,22.20
2022-12-19T06:38:39.035Z,22.80
2022-12-19T06:39:39.020Z,19.30
2022-12-19T06:40:38.997Z,20.00
2022-12-19T06:41:39.202Z,18.20
2022-12-19T06:42:38.962Z,17.10
2022-12-19T06:43:38.966Z,19.40
2022-12-19T06:44:39.130Z,20.20
2022-12-19T06:45:38.964Z,21.50
2022-12-19T06:46:38.921Z,18.70
2022-12-19T06:47:39.124Z,17.60
2022-12-19T06:48:38.888Z,20.30
2022-12-19T06:49:39.079Z,17.80
2022-12-19T06:50:38.873Z,16.70
2022-12-19T06:51:38.863Z,20.70
2022-12-19T06:52:38.839Z,17.30
2022-12-19T06:53:38.834Z,20.70
2022-12-19T06:54:39.028Z,22.30
2022-12-19T06:55:38.799Z,22.20
2022-12-19T06:56:38.794Z,17.80
2022-12-19T06:57:39.007Z,18.10
2022-12-19T06:58:38.792Z,18.90
2022-12-19T06:59:38.755Z,19.40
2022-12-19T07:00:38.785Z,19.30
2022-12-19T07:01:38.868Z,19.90
2022-12-19T07:02:38.777Z,19.70
2022-12-19T07:03:38.719Z,17.20
2022-12-19T07:04:38.907Z,20.20
2022-12-19T07:05:38.674Z,18.40
2022-12-19T07:06:38.680Z,18.80
2022-12-19T07:07:38.669Z,19.70
2022-12-19T07:08:38.641Z,20.50
2022-12-19T07:09:38.627Z,16.50
2022-12-19T07:10:38.861Z,19.90
2022-12-19T07:11:38.596Z,17.60
2022-12-19T07:12:38.583Z,18.60
2022-12-19T07:13:38.562Z,17.60
2022-12-19T07:14:38.556Z,20.40
2022-12-19T07:15:38.761Z,22.50
2022-12-19T07:16:38.601Z,18.00
2022-12-19T07:17:38.519Z,15.00
2022-12-19T07:18:38.500Z,20.50
2022-12-19T07:19:38.489Z,20.40
2022-12-19T07:20:43.287Z,20.30
2022-12-19T07:21:39.470Z,16.40
2022-12-19T07:22:38.665Z,17.90
2022-12-19T07:23:38.430Z,21.10
2022-12-19T07:24:38.437Z,19.30
2022-12-19T07:25:38.629Z,16.20
2022-12-19T07:26:38.402Z,15.30
2022-12-19T07:27:38.632Z,19.60
2022-12-19T07:28:38.378Z,14.00
2022-12-19T07:29:38.359Z,14.70
2022-12-19T07:30:38.363Z,16.60
2022-12-19T07:31:38.579Z,19.10
2022-12-19T07:32:38.317Z,15.50
2022-12-19T07:33:38.315Z,17.70
2022-12-19T07:34:38.312Z,18.60
2022-12-19T07:35:38.296Z,16.00
2022-12-19T07:36:38.314Z,17.50
2022-12-19T07:37:38.265Z,16.60
2022-12-19T07:38:38.275Z,15.50
2022-12-19T07:39:38.244Z,20.10
2022-12-19T07:40:38.233Z,18.40
2022-12-19T07:41:38.225Z,20.70
2022-12-19T07:42:38.203Z,15.30
2022-12-19T07:43:38.233Z,17.30
2022-12-19T07:44:38.173Z,17.10
2022-12-19T07:45:38.217Z,17.80
2022-12-19T07:46:38.151Z,17.90
2022-12-19T07:47:38.152Z,16.10
2022-12-19T07:48:38.133Z,15.10
2022-12-19T07:49:38.128Z,15.80
2022-12-19T07:50:38.330Z,21.00
2022-12-19T07:51:38.108Z,16.60
2022-12-19T07:52:38.088Z,16.80
2022-12-19T07:53:38.059Z,18.70
2022-12-19T07:54:38.053Z,19.00
2022-12-19T07:55:38.042Z,20.80
2022-12-19T07:56:38.052Z,17.80
2022-12-19T07:57:38.001Z,15.90
2022-12-19T07:58:38.030Z,16.60
2022-12-19T07:59:39.402Z,19.00
2022-12-19T08:00:37.970Z,17.30
2022-12-19T08:01:38.016Z,16.60
2022-12-19T08:02:38.019Z,18.90
2022-12-19T08:03:38.148Z,16.90
2022-12-19T08:04:37.928Z,17.10
2022-12-19T08:05:37.902Z,14.40
2022-12-19T08:06:41.395Z,16.60
2022-12-19T08:07:37.888Z,17.30
2022-12-19T08:08:37.956Z,17.70
2022-12-19T08:09:37.869Z,15.70
2022-12-19T08:10:37.847Z,18.20
2022-12-19T08:11:37.830Z,18.90
2022-12-19T08:12:38.056Z,20.70
2022-12-19T08:13:42.043Z,18.40
2022-12-19T08:14:38.983Z,19.30
2022-12-19T08:15:37.840Z,14.00
2022-12-19T08:17:10.773Z,16.30
2022-12-19T08:17:39.073Z,18.10
2022-12-19T08:18:37.747Z,14.50
2022-12-19T08:19:37.725Z,15.20
2022-12-19T08:20:37.715Z,14.10
2022-12-19T08:21:37.718Z,15.70
2022-12-19T08:22:37.885Z,18.10
2022-12-19T08:23:37.877Z,13.90
2022-12-19T08:24:37.663Z,19.90
2022-12-19T08:25:37.653Z,16.00
2022-12-19T08:26:41.913Z,15.90
2022-12-19T08:27:38.668Z,19.60
2022-12-19T08:28:37.627Z,19.10
2022-12-19T08:29:37.830Z,15.00
2022-12-19T08:30:37.600Z,19.80
2022-12-19T08:31:37.613Z,17.50
2022-12-19T08:32:37.554Z,20.10
2022-12-19T08:33:37.556Z,13.50
2022-12-19T08:34:37.562Z,18.90
2022-12-19T08:35:37.522Z,19.50
2022-12-19T08:36:37.533Z,17.90
2022-12-19T08:37:37.522Z,17.00
2022-12-19T08:38:37.737Z,16.30
2022-12-19T08:39:37.701Z,17.40
2022-12-19T08:40:39.582Z,20.90
2022-12-19T08:41:37.467Z,15.40
2022-12-19T08:42:37.445Z,16.50
2022-12-19T08:43:37.426Z,18.90
2022-12-19T08:44:37.644Z,20.70
2022-12-19T08:45:37.427Z,18.30
2022-12-19T08:46:37.452Z,15.30
2022-12-19T08:47:37.374Z,17.90
2022-12-19T08:48:37.361Z,18.40
2022-12-19T08:49:37.539Z,17.40
2022-12-19T08:50:37.327Z,15.70
2022-12-19T08:51:37.323Z,16.20
2022-12-19T08:52:37.308Z,21.50
2022-12-19T08:53:37.511Z,15.70
2022-12-19T08:54:37.288Z,19.40
2022-12-19T08:55:37.266Z,16.30
2022-12-19T08:56:37.305Z,18.40
2022-12-19T08:57:38.237Z,20.70
2022-12-19T08:58:37.246Z,17.70
2022-12-19T08:59:37.237Z,18.60
2022-12-19T09:00:37.432Z,19.60
2022-12-19T09:01:37.263Z,20.50
2022-12-19T09:02:37.493Z,18.20
2022-12-19T09:04:01.575Z,16.00
2022-12-19T09:05:52.853Z,17.50
2022-12-19T09:06:03.541Z,16.30
2022-12-19T09:06:38.180Z,15.30
2022-12-19T09:07:38.546Z,16.60
2022-12-19T09:08:37.126Z,19.90
2022-12-19T09:09:37.104Z,15.20
2022-12-19T09:10:37.310Z,16.80
2022-12-19T09:11:45.906Z,17.80
2022-12-19T09:12:38.045Z,17.10
2022-12-19T09:13:37.288Z,19.10
2022-12-19T09:14:37.043Z,14.80
2022-12-19T09:15:37.244Z,14.60
2022-12-19T09:16:37.238Z,16.30
2022-12-19T09:17:36.996Z,12.80
2022-12-19T09:18:36.990Z,17.20
2022-12-19T09:19:36.972Z,19.80
2022-12-19T09:20:37.174Z,15.80
2022-12-19T09:21:36.950Z,16.80
2022-12-19T09:22:36.915Z,14.00
2022-12-19T09:23:36.903Z,13.70
2022-12-19T09:24:36.900Z,12.80
2022-12-19T09:25:36.893Z,13.80
2022-12-19T09:26:37.063Z,14.60
2022-12-19T09:28:01.207Z,14.10
2022-12-19T09:28:37.842Z,16.00
2022-12-19T09:29:36.833Z,12.10
2022-12-19T09:30:36.896Z,16.30
2022-12-19T09:31:37.019Z,12.70
2022-12-19T09:32:36.781Z,12.60
2022-12-19T09:33:43.137Z,13.30
2022-12-19T09:34:38.967Z,12.20
2022-12-19T09:35:36.749Z,11.90
2022-12-19T09:36:36.756Z,17.00
2022-12-19T09:37:36.735Z,15.20
2022-12-19T09:38:38.170Z,13.50
2022-12-19T09:39:36.716Z,10.60
2022-12-19T09:40:36.685Z,14.80
2022-12-19T09:41:36.898Z,12.30
2022-12-19T09:42:40.775Z,15.20
2022-12-19T09:43:41.268Z,12.00
2022-12-19T09:44:36.643Z,13.90
2022-12-19T09:45:36.629Z,15.70
2022-12-19T09:46:36.887Z,18.00
2022-12-19T09:47:36.793Z,12.40
2022-12-19T09:48:36.597Z,16.90
2022-12-19T09:49:36.558Z,15.60
2022-12-19T09:50:37.556Z,12.00
2022-12-19T09:51:36.543Z,13.00
2022-12-19T09:52:36.569Z,13.90
2022-12-19T09:53:36.507Z,14.30
2022-12-19T09:54:36.515Z,17.20
2022-12-19T09:55:36.490Z,15.10
2022-12-19T09:56:45.977Z,11.40
2022-12-19T09:57:37.487Z,12.60
2022-12-19T09:58:36.464Z,16.50
2022-12-19T09:59:41.532Z,13.10
2022-12-19T10:00:37.424Z,12.80
2022-12-19T10:01:36.773Z,12.70
2022-12-19T10:02:36.886Z,16.30
2022-12-19T10:03:40.505Z,13.00
2022-12-19T10:04:36.384Z,11.70
2022-12-19T10:06:07.383Z,13.80
2022-12-19T10:07:21.277Z,12.10
2022-12-19T10:08:05.059Z,14.60
2022-12-19T10:08:46.784Z,14.10
2022-12-19T10:11:54.829Z,12.90
2022-12-19T10:12:40.544Z,14.00
2022-12-19T10:12:42.573Z,14.80
2022-12-19T10:12:50.735Z,12.10
2022-12-19T10:13:37.513Z,11.30
2022-12-19T10:14:36.261Z,11.20
2022-12-19T10:15:36.271Z,13.60
2022-12-19T10:16:36.233Z,13.90
2022-12-19T10:17:36.211Z,11.90
2022-12-19T10:18:36.209Z,12.30
2022-12-19T10:19:36.203Z,14.20
2022-12-19T10:20:36.181Z,12.40
2022-12-19T10:22:16.250Z,12.50
2022-12-19T10:22:37.178Z,9.30
2022-12-19T10:23:36.140Z,12.40
2022-12-19T10:24:36.135Z,9.40
2022-12-19T10:25:36.310Z,12.60
2022-12-19T10:26:36.109Z,10.80
2022-12-19T10:27:36.122Z,13.40
2022-12-19T10:28:37.285Z,13.50
2022-12-19T10:29:36.082Z,13.20
2022-12-19T10:30:36.039Z,12.70
2022-12-19T10:31:36.069Z,7.60
2022-12-19T10:32:36.010Z,11.80
2022-12-19T10:33:36.003Z,11.10
2022-12-19T10:34:40.765Z,11.90
2022-12-19T10:35:37.037Z,11.00
2022-12-19T10:37:12.248Z,12.40
2022-12-19T10:37:43.846Z,10.90
2022-12-19T10:38:38.418Z,14.10
2022-12-19T10:39:36.018Z,12.10
2022-12-19T10:40:35.944Z,13.80
2022-12-19T10:41:43.692Z,13.50
2022-12-19T10:42:37.079Z,12.20
2022-12-19T10:43:40.866Z,11.70
2022-12-19T10:44:36.885Z,10.80
2022-12-19T10:45:35.844Z,14.30
2022-12-19T10:46:35.935Z,15.20
2022-12-19T10:47:35.836Z,14.10
2022-12-19T10:48:35.816Z,12.00
2022-12-19T10:49:35.805Z,11.30
2022-12-19T10:50:36.025Z,13.60
2022-12-19T10:51:35.771Z,11.90
2022-12-19T10:52:35.773Z,9.90
2022-12-19T10:53:35.742Z,10.60
2022-12-19T10:54:35.760Z,12.60
2022-12-19T10:55:35.717Z,14.10
2022-12-19T10:56:37.937Z,10.90
2022-12-19T10:57:35.906Z,11.20
2022-12-19T10:58:35.710Z,10.10
2022-12-19T10:59:35.693Z,13.50
2022-12-19T11:00:35.871Z,11.90
2022-12-19T11:01:35.944Z,11.60
2022-12-19T11:02:35.861Z,11.90
2022-12-19T11:03:35.927Z,10.00
2022-12-19T11:04:35.631Z,15.10
2022-12-19T11:05:35.695Z,11.40
2022-12-19T11:06:35.642Z,11.80
2022-12-19T11:07:35.601Z,13.00
2022-12-19T11:08:35.604Z,10.40
2022-12-19T11:09:35.556Z,10.50
2022-12-19T11:11:12.918Z,13.40
2022-12-19T11:16:17.185Z,12.20
2022-12-19T11:16:49.205Z,10.20
2022-12-19T11:18:52.032Z,13.10
2022-12-19T11:19:13.480Z,11.70
2022-12-19T11:19:59.560Z,11.70
2022-12-19T11:22:36.523Z,9.40
2022-12-19T11:27:10.913Z,12.20
2022-12-19T11:27:17.271Z,11.30
2022-12-19T11:29:14.321Z,11.20
2022-12-19T11:29:25.902Z,11.40
2022-12-19T11:29:37.372Z,12.90
2022-12-19T11:29:38.523Z,14.70
2022-12-19T11:29:55.170Z,12.50
2022-12-19T11:29:55.844Z,15.80
2022-12-19T11:30:35.208Z,11.30
2022-12-19T11:30:38.842Z,12.70
2022-12-19T11:30:41.546Z,13.50
2022-12-19T11:30:42.889Z,14.00
2022-12-19T11:32:32.113Z,13.00
2022-12-19T11:32:41.214Z,12.10
2022-12-19T11:33:36.274Z,12.70
2022-12-19T11:34:35.211Z,13.90
2022-12-19T11:35:35.428Z,12.30
2022-12-19T11:36:35.193Z,9.60
2022-12-19T11:37:35.195Z,12.70
2022-12-19T11:38:35.152Z,11.50
2022-12-19T11:39:35.147Z,10.80
2022-12-19T11:40:35.203Z,9.50
2022-12-19T11:41:35.121Z,8.90
2022-12-19T11:42:35.104Z,11.20
2022-12-19T11:43:44.490Z,12.20
2022-12-19T11:44:36.073Z,8.20
2022-12-19T11:45:35.273Z,10.40
2022-12-19T11:46:35.052Z,12.30
2022-12-19T11:47:35.041Z,11.10
2022-12-19T11:48:35.277Z,11.40
2022-12-19T11:49:35.021Z,9.60
2022-12-19T11:50:35.016Z,9.90
2022-12-19T11:51:35.235Z,14.40
2022-12-19T11:53:03.491Z,13.10
2022-12-19T11:53:36.175Z,9.90
2022-12-19T11:54:34.989Z,11.80
2022-12-19T11:55:34.941Z,9.00
2022-12-19T11:56:34.930Z,11.00
2022-12-19T11:57:34.910Z,9.20
2022-12-19T11:58:35.004Z,9.90
2022-12-19T11:59:34.909Z,11.30
2022-12-19T12:00:34.865Z,14.00
2022-12-19T12:01:34.930Z,10.70
2022-12-19T12:02:34.880Z,9.60
2022-12-19T12:03:35.095Z,13.00
2022-12-19T12:04:34.869Z,9.90
2022-12-19T12:05:34.826Z,10.00
2022-12-19T12:06:34.873Z,11.70
2022-12-19T12:09:15.693Z,9.90
2022-12-19T12:11:13.029Z,12.40
2022-12-19T12:13:04.163Z,12.10
2022-12-19T12:17:46.250Z,8.90
2022-12-19T12:18:47.793Z,8.80
2022-12-19T12:19:43.265Z,10.50
2022-12-19T12:21:55.764Z,8.80
2022-12-19T12:23:57.225Z,9.40
2022-12-19T12:27:15.246Z,14.50
2022-12-19T12:27:26.714Z,8.70
2022-12-19T12:27:45.615Z,9.30
2022-12-19T12:30:59.034Z,11.00
2022-12-19T12:31:09.191Z,11.00
2022-12-19T12:31:14.257Z,11.80
2022-12-19T12:31:17.816Z,13.20
2022-12-19T12:31:19.171Z,12.50
2022-12-19T12:31:21.921Z,11.20
2022-12-19T12:31:38.992Z,9.10
2022-12-19T12:31:39.011Z,16.10
2022-12-19T12:31:39.253Z,10.50
2022-12-19T12:31:52.578Z,10.80
2022-12-19T12:31:55.171Z,11.10
2022-12-19T12:32:00.575Z,10.40
2022-12-19T12:32:05.785Z,11.80
2022-12-19T12:35:30.453Z,12.00
2022-12-19T12:35:35.102Z,8.40
2022-12-19T12:36:00.034Z,10.40
2022-12-19T12:38:13.723Z,12.40
2022-12-19T12:38:36.140Z,13.80
2022-12-19T12:39:34.640Z,14.30
2022-12-19T12:40:34.362Z,12.30
2022-12-19T12:41:34.360Z,13.00
2022-12-19T12:42:34.324Z,9.90
2022-12-19T12:43:34.333Z,11.70
2022-12-19T12:44:35.462Z,15.20
2022-12-19T12:45:34.347Z,12.10
2022-12-19T12:46:34.493Z,12.10
2022-12-19T12:47:34.261Z,11.80
2022-12-19T12:48:34.256Z,12.60
2022-12-19T12:49:34.230Z,14.00
2022-12-19T12:50:34.233Z,15.30
2022-12-19T12:51:34.230Z,13.40
2022-12-19T12:52:34.198Z,14.80
2022-12-19T12:53:34.190Z,11.00
2022-12-19T12:54:34.195Z,15.10
2022-12-19T12:55:34.150Z,11.10
2022-12-19T12:56:34.191Z,13.60
2022-12-19T12:57:35.946Z,13.50
2022-12-19T12:58:34.119Z,14.60